createdAt,value
2022-09-04T00:03:02.659Z,16.21
2022-09-04T00:06:12.816Z,16.17
2022-09-04T00:09:23.622Z,16.15
2022-09-04T00:12:31.813Z,16.10
2022-09-04T00:15:40.463Z,16.08
2022-09-04T00:18:49.615Z,16.06
2022-09-04T00:21:57.525Z,16.02
2022-09-04T00:25:10.666Z,15.91
2022-09-04T00:28:21.413Z,15.97
2022-09-04T00:31:31.241Z,15.93
2022-09-04T00:34:53.622Z,15.91
2022-09-04T00:38:02.558Z,15.88
2022-09-04T00:41:16.877Z,15.87
2022-09-04T00:44:43.448Z,15.83
2022-09-04T00:48:18.875Z,15.79
2022-09-04T00:51:32.586Z,15.79
2022-09-04T00:54:53.627Z,15.75
2022-09-04T00:58:10.557Z,15.70
2022-09-04T01:01:19.014Z,15.66
2022-09-04T01:04:35.224Z,15.67
2022-09-04T01:07:49.942Z,15.64
2022-09-04T01:11:06.153Z,15.62
2022-09-04T01:14:16.309Z,15.60
2022-09-04T01:17:27.888Z,15.57
2022-09-04T01:20:48.835Z,15.55
2022-09-04T01:24:13.501Z,15.53
2022-09-04T01:27:25.122Z,15.52
2022-09-04T01:30:31.598Z,15.52
2022-09-04T01:33:42.095Z,15.49
2022-09-04T01:36:53.813Z,15.40
2022-09-04T01:40:10.128Z,15.48
2022-09-04T01:43:17.672Z,15.47
2022-09-04T01:46:35.675Z,15.44
2022-09-04T01:49:40.262Z,15.38
2022-09-04T01:52:53.321Z,15.30
2022-09-04T01:56:04.138Z,15.30
2022-09-04T01:59:16.692Z,15.31
2022-09-04T02:02:29.709Z,15.30
2022-09-04T02:05:45.664Z,15.27
2022-09-04T02:09:11.621Z,15.27
2022-09-04T02:12:28.661Z,15.27
2022-09-04T02:15:43.087Z,15.23
2022-09-04T02:18:52.012Z,15.21
2022-09-04T02:22:02.786Z,15.18
2022-09-04T02:25:13.045Z,15.17
2022-09-04T02:28:24.637Z,15.12
2022-09-04T02:31:39.167Z,15.12
2022-09-04T02:34:48.861Z,15.09
2022-09-04T02:38:04.868Z,15.07
2022-09-04T02:41:19.662Z,15.04
2022-09-04T02:44:36.045Z,15.04
2022-09-04T02:47:51.520Z,15.03
2022-09-04T02:51:07.099Z,15.05
2022-09-04T02:54:15.908Z,15.01
2022-09-04T02:57:33.451Z,15.00
2022-09-04T03:00:44.350Z,14.98
2022-09-04T03:03:58.445Z,14.95
2022-09-04T03:07:09.213Z,14.93
2022-09-04T03:10:16.645Z,14.90
2022-09-04T03:13:27.845Z,14.89
2022-09-04T03:16:36.985Z,14.87
2022-09-04T03:19:50.776Z,14.84
2022-09-04T03:23:00.118Z,14.80
2022-09-04T03:26:18.064Z,14.77
2022-09-04T03:29:33.982Z,14.72
2022-09-04T03:32:46.274Z,14.71
2022-09-04T03:35:56.957Z,14.71
2022-09-04T03:39:04.768Z,14.68
2022-09-04T03:42:16.875Z,14.65
2022-09-04T03:45:30.236Z,14.64
2022-09-04T03:48:52.595Z,14.61
2022-09-04T03:52:03.713Z,14.61
2022-09-04T03:55:25.070Z,14.58
2022-09-04T03:58:38.083Z,14.56
2022-09-04T04:01:52.711Z,14.51
2022-09-04T04:05:21.685Z,14.46
2022-09-04T04:08:38.247Z,14.46
2022-09-04T04:11:55.851Z,14.43
2022-09-04T04:15:12.666Z,14.41
2022-09-04T04:18:48.216Z,14.38
2022-09-04T04:22:05.626Z,14.37
2022-09-04T04:25:25.685Z,14.35
2022-09-04T04:28:47.925Z,14.32
2022-09-04T04:32:13.694Z,14.32
2022-09-04T04:35:28.789Z,14.29
2022-09-04T04:38:47.744Z,14.28
2022-09-04T04:42:05.688Z,14.23
2022-09-04T04:45:35.776Z,14.28
2022-09-04T04:49:05.348Z,14.23
2022-09-04T04:52:25.668Z,14.25
2022-09-04T04:55:38.709Z,14.26
2022-09-04T04:58:56.133Z,14.28
2022-09-04T05:02:07.819Z,14.32
2022-09-04T05:05:17.183Z,14.38
2022-09-04T05:08:32.985Z,14.38
2022-09-04T05:11:41.751Z,14.40
2022-09-04T05:14:55.462Z,14.42
2022-09-04T05:18:04.569Z,14.47
2022-09-04T05:21:15.742Z,14.50
2022-09-04T05:24:26.315Z,14.57
2022-09-04T05:27:49.788Z,14.63
2022-09-04T05:31:14.511Z,14.69
2022-09-04T05:34:29.144Z,14.75
2022-09-04T05:37:38.796Z,14.79
2022-09-04T05:40:59.407Z,14.84
2022-09-04T05:44:16.156Z,14.94
2022-09-04T05:47:31.004Z,15.02
2022-09-04T05:50:50.204Z,15.13
2022-09-04T05:54:13.802Z,15.22
2022-09-04T05:57:32.739Z,15.51
2022-09-04T06:00:49.274Z,15.98
2022-09-04T06:04:15.364Z,16.52
2022-09-04T06:07:26.968Z,17.33
2022-09-04T06:10:44.350Z,17.75
2022-09-04T06:14:04.318Z,17.95
2022-09-04T06:17:27.476Z,17.99
2022-09-04T06:20:42.111Z,17.99
2022-09-04T06:24:00.730Z,18.28
2022-09-04T06:27:26.250Z,18.43
2022-09-04T06:30:37.764Z,18.51
2022-09-04T06:33:53.717Z,18.63
2022-09-04T06:37:16.191Z,18.78
2022-09-04T06:40:33.127Z,18.92
2022-09-04T06:43:43.186Z,19.09
2022-09-04T06:47:08.562Z,19.24
2022-09-04T06:50:24.008Z,19.50
2022-09-04T06:53:42.407Z,19.63
2022-09-04T06:57:03.911Z,19.93
2022-09-04T07:00:09.496Z,19.77
2022-09-04T07:03:38.715Z,19.71
2022-09-04T07:06:53.403Z,19.57
2022-09-04T07:10:01.927Z,19.17
2022-09-04T07:13:23.443Z,18.52
2022-09-04T07:16:38.904Z,18.15
2022-09-04T07:19:52.434Z,17.95
2022-09-04T07:23:08.740Z,17.85
2022-09-04T07:26:26.877Z,17.84
2022-09-04T07:29:35.745Z,17.85
2022-09-04T07:32:45.321Z,17.85
2022-09-04T07:35:54.447Z,17.96
2022-09-04T07:39:05.991Z,17.98
2022-09-04T07:42:16.067Z,18.01
2022-09-04T07:45:30.083Z,18.09
2022-09-04T07:48:38.042Z,18.23
2022-09-04T07:51:47.523Z,18.35
2022-09-04T07:55:12.164Z,18.43
2022-09-04T07:58:49.437Z,18.51
2022-09-04T08:02:11.520Z,18.61
2022-09-04T08:05:24.054Z,18.71
2022-09-04T08:09:04.029Z,18.81
2022-09-04T08:12:26.389Z,18.94
2022-09-04T08:15:43.192Z,19.04
2022-09-04T08:19:03.529Z,19.17
2022-09-04T08:22:06.274Z,19.32
2022-09-04T08:25:19.786Z,19.36
2022-09-04T08:28:35.367Z,19.51
2022-09-04T08:31:43.444Z,19.62
2022-09-04T08:35:08.770Z,19.75
2022-09-04T08:38:27.428Z,19.89
2022-09-04T08:42:11.367Z,20.03
2022-09-04T08:45:44.880Z,20.17
2022-09-04T08:49:27.358Z,20.29
2022-09-04T08:53:13.911Z,20.45
2022-09-04T08:56:27.932Z,20.63
2022-09-04T09:00:06.122Z,20.82
2022-09-04T09:03:53.186Z,21.00
2022-09-04T09:07:42.665Z,21.17
2022-09-04T09:11:16.059Z,21.39
2022-09-04T09:14:58.903Z,21.61
2022-09-04T09:18:03.277Z,21.78
2022-09-04T09:21:10.631Z,22.03
2022-09-04T09:24:40.986Z,22.24
2022-09-04T09:28:27.559Z,22.52
2022-09-04T09:32:19.043Z,22.80
2022-09-04T09:36:03.486Z,23.15
2022-09-04T09:39:30.708Z,23.41
2022-09-04T09:43:08.888Z,23.71
2022-09-04T09:46:48.944Z,23.93
2022-09-04T09:50:20.587Z,23.93
2022-09-04T09:53:51.703Z,24.14
2022-09-04T09:57:25.546Z,24.13
2022-09-04T10:00:47.144Z,24.08
2022-09-04T10:04:11.769Z,24.34
2022-09-04T10:07:41.752Z,24.76
2022-09-04T10:11:03.999Z,25.14
2022-09-04T10:14:47.064Z,25.48
2022-09-04T10:18:32.911Z,25.66
2022-09-04T10:22:02.755Z,25.92
2022-09-04T10:25:46.035Z,26.16
2022-09-04T10:29:11.906Z,26.22
2022-09-04T10:32:47.325Z,26.48
2022-09-04T10:36:00.250Z,26.49
2022-09-04T10:39:35.681Z,26.30
2022-09-04T10:42:51.502Z,26.26
2022-09-04T10:46:04.080Z,26.26
2022-09-04T10:49:30.485Z,26.33
2022-09-04T10:53:12.027Z,26.45
2022-09-04T10:56:23.699Z,26.50
2022-09-04T10:59:58.374Z,26.55
2022-09-04T11:03:27.849Z,26.60
2022-09-04T11:06:58.519Z,26.69
2022-09-04T11:10:15.553Z,26.76
2022-09-04T11:14:14.583Z,26.89
2022-09-04T11:17:56.146Z,27.00
2022-09-04T11:21:31.114Z,27.28
2022-09-04T11:25:07.661Z,27.73
2022-09-04T11:28:41.257Z,27.61
2022-09-04T11:32:15.845Z,27.83
2022-09-04T11:36:06.187Z,27.90
2022-09-04T11:39:47.721Z,27.71
2022-09-04T11:43:10.687Z,27.65
2022-09-04T11:46:36.865Z,27.52
2022-09-04T11:50:14.478Z,27.72
2022-09-04T11:53:33.580Z,27.92
2022-09-04T11:56:52.688Z,28.02
2022-09-04T12:00:09.618Z,27.86
2022-09-04T12:03:37.043Z,27.59
2022-09-04T12:06:55.281Z,27.49
2022-09-04T12:10:32.549Z,27.51
2022-09-04T12:14:02.059Z,27.47
2022-09-04T12:17:27.469Z,27.21
2022-09-04T12:20:50.995Z,27.18
2022-09-04T12:24:17.508Z,26.99
2022-09-04T12:27:58.844Z,26.79
2022-09-04T12:31:19.986Z,26.59
2022-09-04T12:34:39.475Z,26.66
2022-09-04T12:38:11.871Z,27.05
2022-09-04T12:41:20.414Z,27.18
2022-09-04T12:44:35.906Z,27.43
2022-09-04T12:47:55.476Z,27.28
2022-09-04T12:51:09.497Z,27.32
2022-09-04T12:54:33.226Z,27.33
2022-09-04T12:57:49.030Z,27.13
2022-09-04T13:01:08.530Z,27.02
2022-09-04T13:04:21.561Z,26.99
2022-09-04T13:07:51.360Z,27.11
2022-09-04T13:11:06.061Z,27.37
2022-09-04T13:14:30.516Z,27.87
2022-09-04T13:17:47.004Z,28.20
2022-09-04T13:20:58.154Z,28.35
2022-09-04T13:24:13.727Z,28.32
2022-09-04T13:27:31.667Z,28.21
2022-09-04T13:30:45.252Z,27.94
2022-09-04T13:33:57.862Z,27.82
2022-09-04T13:37:09.840Z,27.84
2022-09-04T13:40:25.094Z,27.81
2022-09-04T13:43:44.379Z,27.70
2022-09-04T13:46:52.736Z,27.58
2022-09-04T13:50:00.135Z,27.53
2022-09-04T13:53:14.158Z,27.51
2022-09-04T13:56:23.143Z,27.48
2022-09-04T13:59:27.047Z,27.51
2022-09-04T14:02:31.869Z,27.72
2022-09-04T14:05:38.012Z,28.04
2022-09-04T14:08:43.072Z,28.33
2022-09-04T14:12:20.488Z,28.62
2022-09-04T14:15:46.664Z,28.78
2022-09-04T14:19:16.351Z,28.74
2022-09-04T14:22:33.840Z,28.41
2022-09-04T14:25:45.531Z,28.14
2022-09-04T14:28:55.680Z,28.01
2022-09-04T14:32:11.811Z,28.26
2022-09-04T14:35:25.801Z,28.40
2022-09-04T14:38:53.659Z,28.48
2022-09-04T14:42:18.903Z,28.45
2022-09-04T14:45:50.814Z,28.39
2022-09-04T14:49:02.437Z,28.34
2022-09-04T14:52:16.676Z,28.31
2022-09-04T14:55:26.482Z,28.38
2022-09-04T14:58:34.316Z,28.38
2022-09-04T15:01:40.548Z,28.36
2022-09-04T15:04:48.785Z,28.31
2022-09-04T15:07:56.894Z,28.28
2022-09-04T15:11:03.389Z,28.20
2022-09-04T15:14:24.462Z,28.18
2022-09-04T15:17:30.069Z,28.19
2022-09-04T15:20:36.617Z,28.19
2022-09-04T15:23:48.681Z,28.18
2022-09-04T15:26:57.602Z,28.12
2022-09-04T15:30:06.591Z,28.08
2022-09-04T15:33:12.277Z,27.95
2022-09-04T15:36:18.756Z,27.84
2022-09-04T15:39:34.753Z,28.02
2022-09-04T15:42:46.104Z,27.90
2022-09-04T15:45:56.763Z,28.05
2022-09-04T15:49:16.932Z,28.11
2022-09-04T15:52:26.886Z,28.17
2022-09-04T15:55:35.450Z,28.21
2022-09-04T15:58:49.228Z,28.19
2022-09-04T16:01:57.751Z,28.13
2022-09-04T16:05:07.589Z,28.08
2022-09-04T16:08:21.487Z,28.04
2022-09-04T16:11:29.915Z,28.00
2022-09-04T16:14:38.429Z,27.95
2022-09-04T16:17:52.455Z,27.89
2022-09-04T16:20:58.988Z,27.83
2022-09-04T16:24:08.888Z,27.64
2022-09-04T16:27:19.421Z,27.57
2022-09-04T16:30:33.413Z,27.41
2022-09-04T16:33:41.255Z,27.28
2022-09-04T16:36:48.298Z,27.11
2022-09-04T16:40:02.401Z,26.96
2022-09-04T16:43:19.602Z,26.75
2022-09-04T16:46:29.734Z,26.64
2022-09-04T16:49:40.802Z,26.48
2022-09-04T16:53:13.825Z,26.32
2022-09-04T16:56:23.007Z,26.10
2022-09-04T16:59:32.846Z,25.90
2022-09-04T17:02:44.735Z,25.68
2022-09-04T17:05:51.927Z,25.37
2022-09-04T17:09:04.324Z,25.28
2022-09-04T17:12:19.118Z,25.06
2022-09-04T17:15:32.103Z,24.86
2022-09-04T17:18:41.044Z,24.70
2022-09-04T17:29:00.262Z,24.49
2022-09-04T17:29:08.631Z,24.39
2022-09-04T17:29:34.295Z,24.30
2022-09-04T17:36:24.971Z,24.21
2022-09-04T17:40:38.663Z,24.10
2022-09-04T17:40:48.711Z,23.98
2022-09-04T17:43:24.260Z,23.85
2022-09-04T17:46:34.568Z,23.77
2022-09-04T17:49:43.541Z,23.69
2022-09-04T17:53:00.198Z,23.53
2022-09-04T17:56:09.331Z,23.38
2022-09-04T17:59:17.008Z,23.26
2022-09-04T18:02:27.161Z,23.11
2022-09-04T18:05:43.500Z,23.02
2022-09-04T18:09:01.790Z,22.91
2022-09-04T18:12:12.711Z,22.79
2022-09-04T18:15:33.793Z,22.71
2022-09-04T18:18:44.647Z,22.62
2022-09-04T18:22:25.591Z,22.54
2022-09-04T18:25:19.752Z,22.49
2022-09-04T18:28:28.014Z,22.41
2022-09-04T18:34:58.909Z,22.33
2022-09-04T18:37:15.824Z,22.24
2022-09-04T18:38:37.583Z,22.15
2022-09-04T18:50:00.997Z,22.05
2022-09-04T18:50:29.198Z,21.83
2022-09-04T18:50:40.777Z,21.85
2022-09-04T18:52:45.499Z,21.84
2022-09-04T18:55:52.140Z,21.76
2022-09-04T18:59:01.784Z,21.67
2022-09-04T19:02:14.583Z,21.62
2022-09-04T19:05:19.032Z,21.55
2022-09-04T19:08:30.118Z,21.45
2022-09-04T19:11:43.104Z,21.41
2022-09-04T19:14:46.295Z,21.33
2022-09-04T19:17:55.456Z,21.26
2022-09-04T19:21:16.769Z,21.13
2022-09-04T19:24:31.418Z,21.01
2022-09-04T19:27:43.543Z,21.00
2022-09-04T19:30:53.847Z,20.96
2022-09-04T19:34:00.942Z,20.89
2022-09-04T19:37:30.172Z,20.82
2022-09-04T19:46:00.354Z,20.74
2022-09-04T19:46:18.372Z,20.66
2022-09-04T19:47:47.777Z,20.58
2022-09-04T19:53:29.789Z,20.50
2022-09-04T19:54:21.934Z,20.36
2022-09-04T19:57:32.597Z,20.40
2022-09-04T20:00:47.735Z,20.31
2022-09-04T20:03:58.506Z,20.26
2022-09-04T20:07:04.338Z,20.20
2022-09-04T20:10:18.380Z,20.13
2022-09-04T20:13:27.707Z,20.05
2022-09-04T20:16:37.463Z,20.04
2022-09-04T20:19:45.056Z,19.98
2022-09-04T20:22:53.948Z,19.93
2022-09-04T20:26:02.610Z,19.87
2022-09-04T20:29:17.842Z,19.81
2022-09-04T20:32:26.676Z,19.73
2022-09-04T20:35:34.820Z,19.68
2022-09-04T20:38:46.402Z,19.64
2022-09-04T20:41:55.774Z,19.58
2022-09-04T20:50:06.857Z,19.56
2022-09-04T20:52:59.183Z,19.49
2022-09-04T20:53:07.080Z,19.40
2022-09-04T20:55:35.168Z,19.34
2022-09-04T21:03:12.464Z,19.28
2022-09-04T21:03:17.936Z,19.23
2022-09-04T21:06:13.101Z,19.16
2022-09-04T21:09:30.513Z,19.10
2022-09-04T21:12:39.109Z,19.08
2022-09-04T21:15:49.238Z,19.02
2022-09-04T21:19:29.291Z,18.96
2022-09-04T21:22:52.161Z,18.88
2022-09-04T21:26:05.682Z,18.85
2022-09-04T21:29:33.070Z,18.77
2022-09-04T21:32:50.305Z,18.69
2022-09-04T21:35:55.568Z,18.68
2022-09-04T21:39:44.177Z,18.59
2022-09-04T21:43:03.208Z,18.57
2022-09-04T21:46:28.981Z,18.52
2022-09-04T21:50:14.052Z,18.45
2022-09-04T21:53:39.254Z,18.42
2022-09-04T22:02:32.208Z,18.39
2022-09-04T22:02:36.341Z,18.32
2022-09-04T22:03:56.710Z,18.27
2022-09-04T22:10:26.219Z,18.21
2022-09-04T22:13:38.283Z,18.16
2022-09-04T22:14:13.314Z,18.10
2022-09-04T22:17:30.695Z,18.06
2022-09-04T22:20:53.972Z,18.01
2022-09-04T22:24:23.768Z,17.99
2022-09-04T22:28:08.029Z,17.96
2022-09-04T22:31:42.932Z,17.87
2022-09-04T22:35:19.538Z,17.85
2022-09-04T22:39:07.690Z,17.78
2022-09-04T22:42:32.472Z,17.73
2022-09-04T22:46:03.114Z,17.69
2022-09-04T22:49:42.837Z,17.65
2022-09-04T22:53:07.969Z,17.62
2022-09-04T22:56:24.699Z,17.61
2022-09-04T23:00:03.679Z,17.54
2022-09-04T23:03:29.801Z,17.53
2022-09-04T23:10:08.548Z,17.50
2022-09-04T23:13:57.503Z,17.44
2022-09-04T23:14:25.306Z,17.38
2022-09-04T23:19:17.422Z,17.34
2022-09-04T23:26:32.358Z,17.29
2022-09-04T23:26:43.559Z,17.23
2022-09-04T23:28:52.467Z,17.19
2022-09-04T23:32:16.706Z,17.17
2022-09-04T23:35:36.483Z,17.13
2022-09-04T23:39:16.777Z,17.11
2022-09-04T23:42:45.962Z,17.09
2022-09-04T23:46:09.020Z,17.05
2022-09-04T23:49:38.572Z,17.02
2022-09-04T23:52:52.167Z,16.97
2022-09-04T23:56:10.122Z,16.92
2022-09-04T23:59:38.703Z,16.88
